createdAt,value
2018-03-19T00:01:11.491Z,3.78
2018-03-19T00:03:39.047Z,4.97
2018-03-19T00:06:06.660Z,3.65
2018-03-19T00:08:34.246Z,3.30
2018-03-19T00:11:01.916Z,3.83
2018-03-19T00:13:29.471Z,4.03
2018-03-19T00:15:57.097Z,4.05
2018-03-19T00:18:24.637Z,3.87
2018-03-19T00:20:53.808Z,3.50
2018-03-19T00:23:21.427Z,4.03
2018-03-19T00:25:48.981Z,3.30
2018-03-19T00:28:16.565Z,3.53
2018-03-19T00:30:44.141Z,3.42
2018-03-19T00:33:11.743Z,4.07
2018-03-19T00:35:39.339Z,3.15
2018-03-19T00:38:06.983Z,3.85
2018-03-19T00:40:34.586Z,3.35
2018-03-19T00:43:02.165Z,4.57
2018-03-19T00:45:29.767Z,4.55
2018-03-19T00:47:57.313Z,5.22
2018-03-19T00:50:24.868Z,3.60
2018-03-19T00:52:52.480Z,4.15
2018-03-19T00:55:20.303Z,3.00
2018-03-19T00:57:47.894Z,4.62
2018-03-19T01:00:15.480Z,5.15
2018-03-19T01:02:43.080Z,4.10
2018-03-19T01:05:10.686Z,3.40
2018-03-19T01:07:38.280Z,4.60
2018-03-19T01:10:06.668Z,3.87
2018-03-19T01:12:34.245Z,3.42
2018-03-19T01:15:01.798Z,4.82
2018-03-19T01:17:29.349Z,4.32
2018-03-19T01:19:56.953Z,4.82
2018-03-19T01:22:25.378Z,4.35
2018-03-19T01:24:52.970Z,3.95
2018-03-19T01:27:20.565Z,3.50
2018-03-19T01:29:48.140Z,3.55
2018-03-19T01:32:15.688Z,4.05
2018-03-19T01:34:43.362Z,4.30
2018-03-19T01:37:10.910Z,5.10
2018-03-19T01:39:38.486Z,3.62
2018-03-19T01:42:06.094Z,4.15
2018-03-19T01:44:33.674Z,3.53
2018-03-19T01:47:01.250Z,4.53
2018-03-19T01:49:28.821Z,3.95
2018-03-19T01:51:57.937Z,4.40
2018-03-19T01:54:26.309Z,4.53
2018-03-19T01:56:53.868Z,5.05
2018-03-19T01:59:21.532Z,3.55
2018-03-19T02:01:49.056Z,4.40
2018-03-19T02:04:16.619Z,4.32
2018-03-19T02:06:44.200Z,4.20
2018-03-19T02:09:11.780Z,4.05
2018-03-19T02:11:41.075Z,3.33
2018-03-19T02:14:08.659Z,4.00
2018-03-19T02:16:36.256Z,4.10
2018-03-19T02:19:03.832Z,3.12
2018-03-19T02:21:31.395Z,3.37
2018-03-19T02:23:58.970Z,4.72
2018-03-19T02:26:26.547Z,3.97
2018-03-19T02:28:54.881Z,3.83
2018-03-19T02:31:22.441Z,4.75
2018-03-19T02:33:50.587Z,4.50
2018-03-19T02:36:18.178Z,4.95
2018-03-19T02:38:45.753Z,4.12
2018-03-19T02:41:13.547Z,4.07
2018-03-19T02:43:41.880Z,4.00
2018-03-19T02:46:10.406Z,5.15
2018-03-19T02:48:37.999Z,4.70
2018-03-19T02:51:05.576Z,4.18
2018-03-19T02:53:33.154Z,3.37
2018-03-19T02:56:00.776Z,4.05
2018-03-19T02:58:28.463Z,3.70
2018-03-19T03:00:56.032Z,3.90
2018-03-19T03:03:23.637Z,4.70
2018-03-19T03:05:51.383Z,4.60
2018-03-19T03:08:19.758Z,3.45
2018-03-19T03:10:48.159Z,4.20
2018-03-19T03:13:16.521Z,4.40
2018-03-19T03:15:44.072Z,4.47
2018-03-19T03:18:11.673Z,4.37
2018-03-19T03:20:39.224Z,4.18
2018-03-19T03:23:06.772Z,4.05
2018-03-19T03:25:35.306Z,4.72
2018-03-19T03:28:02.863Z,3.62
2018-03-19T03:30:30.448Z,3.97
2018-03-19T03:32:58.086Z,4.65
2018-03-19T03:35:25.638Z,4.05
2018-03-19T03:37:53.195Z,4.00
2018-03-19T03:40:20.794Z,3.60
2018-03-19T03:42:48.349Z,3.85
2018-03-19T03:45:15.948Z,4.28
2018-03-19T03:47:43.576Z,4.22
2018-03-19T03:50:11.163Z,4.53
2018-03-19T03:52:39.492Z,3.87
2018-03-19T03:55:07.102Z,4.45
2018-03-19T03:57:34.701Z,3.92
2018-03-19T04:00:02.334Z,5.00
2018-03-19T04:02:29.900Z,2.92
2018-03-19T04:04:57.496Z,3.90
2018-03-19T04:07:25.111Z,4.22
2018-03-19T04:09:52.686Z,4.00
2018-03-19T04:12:20.244Z,4.28
2018-03-19T04:14:47.856Z,4.30
2018-03-19T04:17:15.455Z,4.47
2018-03-19T04:19:43.010Z,4.28
2018-03-19T04:22:11.308Z,4.82
2018-03-19T04:24:38.867Z,4.65
2018-03-19T04:27:06.485Z,4.60
2018-03-19T04:29:35.076Z,4.93
2018-03-19T04:32:03.406Z,4.28
2018-03-19T04:34:30.969Z,4.15
2018-03-19T04:39:33.186Z,4.45
2018-03-19T04:42:00.813Z,4.82
2018-03-19T04:44:28.396Z,4.97
2018-03-19T04:46:56.024Z,4.22
2018-03-19T04:49:23.581Z,4.00
2018-03-19T04:51:51.151Z,4.18
2018-03-19T04:54:18.716Z,4.50
2018-03-19T04:56:47.120Z,4.82
2018-03-19T04:59:14.685Z,4.55
2018-03-19T05:01:42.323Z,4.57
2018-03-19T05:04:09.943Z,4.22
2018-03-19T05:06:37.531Z,4.57
2018-03-19T05:09:05.114Z,5.40
2018-03-19T05:11:32.713Z,4.60
2018-03-19T05:14:00.299Z,5.10
2018-03-19T05:16:27.937Z,4.03
2018-03-19T05:18:56.270Z,3.62
2018-03-19T05:21:23.846Z,3.87
2018-03-19T05:23:51.791Z,4.15
2018-03-19T05:26:19.430Z,5.10
2018-03-19T05:28:46.987Z,3.92
2018-03-19T05:31:14.548Z,4.55
2018-03-19T05:33:42.181Z,4.70
2018-03-19T05:36:10.484Z,4.70
2018-03-19T05:38:38.085Z,4.45
2018-03-19T05:41:05.685Z,4.37
2018-03-19T05:43:34.041Z,5.03
2018-03-19T05:46:02.456Z,4.68
2018-03-19T05:48:30.952Z,5.40
2018-03-19T05:50:58.539Z,5.57
2018-03-19T05:53:26.102Z,5.68
2018-03-19T05:55:53.654Z,5.32
2018-03-19T05:58:21.202Z,4.55
2018-03-19T06:00:48.869Z,4.53
2018-03-19T06:03:16.432Z,5.40
2018-03-19T06:05:43.991Z,4.00
2018-03-19T06:08:11.636Z,4.53
2018-03-19T06:10:39.225Z,4.47
2018-03-19T06:13:06.801Z,4.20
2018-03-19T06:15:34.996Z,4.20
2018-03-19T06:18:02.619Z,5.20
2018-03-19T06:20:30.190Z,4.55
2018-03-19T06:22:57.802Z,4.78
2018-03-19T06:25:25.372Z,5.07
2018-03-19T06:27:52.937Z,4.95
2018-03-19T06:30:20.541Z,4.62
2018-03-19T06:32:48.104Z,4.40
2018-03-19T06:35:15.756Z,4.55
2018-03-19T06:37:43.350Z,4.28
2018-03-19T06:40:11.685Z,4.25
2018-03-19T06:42:39.245Z,5.45
2018-03-19T06:45:06.844Z,3.97
2018-03-19T06:47:35.186Z,5.05
2018-03-19T06:50:03.025Z,3.35
2018-03-19T06:52:30.596Z,4.37
2018-03-19T06:54:58.197Z,5.12
2018-03-19T06:57:25.838Z,4.95
2018-03-19T06:59:53.530Z,5.22
2018-03-19T07:02:21.132Z,5.00
2018-03-19T07:04:48.954Z,5.20
2018-03-19T07:07:17.342Z,5.50
2018-03-19T07:09:44.969Z,4.03
2018-03-19T07:12:13.266Z,4.97
2018-03-19T07:14:40.845Z,5.78
2018-03-19T07:17:09.159Z,5.00
2018-03-19T07:19:36.712Z,5.75
2018-03-19T07:22:04.372Z,5.28
2018-03-19T07:24:31.969Z,4.20
2018-03-19T07:26:59.553Z,4.20
2018-03-19T07:29:27.973Z,6.57
2018-03-19T07:31:55.645Z,7.68
2018-03-19T07:34:23.353Z,5.85
2018-03-19T07:36:50.947Z,4.85
2018-03-19T07:39:18.510Z,5.37
2018-03-19T07:41:46.090Z,5.65
2018-03-19T07:44:13.696Z,5.62
2018-03-19T07:46:42.101Z,11.88
2018-03-19T07:49:09.904Z,5.05
2018-03-19T07:51:37.524Z,6.43
2018-03-19T07:54:05.126Z,5.95
2018-03-19T07:56:32.782Z,4.82
2018-03-19T07:59:00.412Z,5.57
2018-03-19T08:01:27.967Z,6.72
2018-03-19T08:03:55.532Z,5.43
2018-03-19T08:06:23.896Z,5.70
2018-03-19T08:08:51.511Z,5.50
2018-03-19T08:11:20.068Z,6.32
2018-03-19T08:13:47.668Z,3.50
2018-03-19T08:16:15.265Z,6.03
2018-03-19T08:18:42.828Z,5.60
2018-03-19T08:21:10.389Z,5.32
2018-03-19T08:23:37.955Z,3.80
2018-03-19T08:26:05.612Z,4.80
2018-03-19T08:28:33.204Z,5.57
2018-03-19T08:31:00.757Z,4.68
2018-03-19T08:33:28.338Z,5.53
2018-03-19T08:35:55.974Z,4.57
2018-03-19T08:38:24.572Z,5.55
2018-03-19T08:40:52.126Z,5.03
2018-03-19T08:43:19.780Z,4.85
2018-03-19T08:45:47.341Z,5.05
2018-03-19T08:48:14.920Z,4.47
2018-03-19T08:50:42.526Z,4.30
2018-03-19T08:53:10.945Z,5.03
2018-03-19T08:55:38.503Z,5.62
2018-03-19T08:58:06.079Z,4.07
2018-03-19T09:00:34.571Z,4.97
2018-03-19T09:03:02.221Z,3.65
2018-03-19T09:05:29.874Z,4.00
2018-03-19T09:07:57.486Z,4.12
2018-03-19T09:10:25.854Z,4.78
2018-03-19T09:12:53.412Z,4.28
2018-03-19T09:15:20.977Z,5.28
2018-03-19T09:17:48.529Z,3.40
2018-03-19T09:20:17.074Z,5.12
2018-03-19T09:22:44.641Z,4.60
2018-03-19T09:25:12.262Z,4.37
2018-03-19T09:27:39.864Z,5.20
2018-03-19T09:30:07.393Z,4.32
2018-03-19T09:32:34.994Z,5.80
2018-03-19T09:35:02.653Z,3.42
2018-03-19T09:37:31.326Z,4.30
2018-03-19T09:39:58.879Z,4.32
2018-03-19T09:42:26.505Z,3.60
2018-03-19T09:44:54.154Z,5.12
2018-03-19T09:47:22.457Z,3.75
2018-03-19T09:49:50.196Z,4.65
2018-03-19T09:52:18.577Z,4.20
2018-03-19T09:54:46.956Z,5.90
2018-03-19T09:57:15.487Z,4.72
2018-03-19T09:59:43.041Z,4.87
2018-03-19T10:02:10.632Z,4.37
2018-03-19T10:04:38.287Z,5.18
2018-03-19T10:07:05.874Z,4.50
2018-03-19T10:09:33.412Z,5.80
2018-03-19T10:12:01.073Z,4.80
2018-03-19T10:14:28.630Z,3.90
2018-03-19T10:16:56.184Z,4.47
2018-03-19T10:19:23.789Z,5.70
2018-03-19T10:21:52.127Z,4.72
2018-03-19T10:24:19.687Z,5.47
2018-03-19T10:26:48.091Z,4.22
2018-03-19T10:29:16.089Z,6.30
2018-03-19T10:31:43.649Z,4.05
2018-03-19T10:34:12.014Z,4.60
2018-03-19T10:36:40.353Z,5.50
2018-03-19T10:39:07.966Z,4.60
2018-03-19T10:41:35.606Z,4.97
2018-03-19T10:44:04.068Z,4.20
2018-03-19T10:46:31.632Z,5.47
2018-03-19T10:48:59.243Z,4.70
2018-03-19T10:51:26.873Z,4.85
2018-03-19T10:53:55.180Z,5.25
2018-03-19T10:56:22.788Z,5.22
2018-03-19T10:58:50.334Z,4.47
2018-03-19T11:01:23.447Z,4.22
2018-03-19T11:04:00.905Z,4.62
2018-03-19T11:06:34.066Z,4.12
2018-03-19T11:09:07.392Z,4.40
2018-03-19T11:11:35.011Z,4.00
2018-03-19T11:14:04.464Z,4.15
2018-03-19T11:16:32.071Z,4.62
2018-03-19T11:19:00.512Z,6.07
2018-03-19T11:21:28.103Z,5.05
2018-03-19T11:23:55.747Z,4.93
2018-03-19T11:26:24.211Z,5.18
2018-03-19T11:28:51.759Z,3.85
2018-03-19T11:31:19.332Z,3.55
2018-03-19T11:33:46.900Z,4.93
2018-03-19T11:36:15.205Z,4.47
2018-03-19T11:38:43.727Z,3.80
2018-03-19T11:41:11.427Z,4.00
2018-03-19T11:43:38.974Z,5.60
2018-03-19T11:46:06.552Z,4.55
2018-03-19T11:48:34.152Z,4.12
2018-03-19T11:51:01.900Z,5.07
2018-03-19T11:53:29.464Z,4.97
2018-03-19T11:55:57.915Z,4.50
2018-03-19T11:58:25.462Z,4.82
2018-03-19T12:00:53.104Z,3.75
2018-03-19T12:03:20.694Z,3.95
2018-03-19T12:05:48.292Z,4.95
2018-03-19T12:08:15.827Z,5.80
2018-03-19T12:10:43.379Z,3.47
2018-03-19T12:13:10.946Z,5.72
2018-03-19T12:15:38.476Z,4.80
2018-03-19T12:18:06.845Z,5.72
2018-03-19T12:20:34.399Z,4.15
2018-03-19T12:23:02.081Z,4.07
2018-03-19T12:25:29.651Z,3.83
2018-03-19T12:27:57.194Z,4.90
2018-03-19T12:30:24.755Z,4.20
2018-03-19T12:32:52.343Z,5.12
2018-03-19T12:35:19.908Z,3.95
2018-03-19T12:37:48.287Z,4.25
2018-03-19T12:40:16.714Z,3.40
2018-03-19T12:42:44.253Z,5.75
2018-03-19T12:45:11.829Z,5.53
2018-03-19T12:47:39.420Z,4.28
2018-03-19T12:50:07.114Z,4.50
2018-03-19T12:52:34.690Z,4.03
2018-03-19T12:55:02.293Z,4.68
2018-03-19T12:57:29.860Z,4.03
2018-03-19T12:59:57.444Z,4.15
2018-03-19T13:02:25.070Z,4.75
2018-03-19T13:04:52.648Z,3.62
2018-03-19T13:07:20.262Z,4.93
2018-03-19T13:09:47.894Z,4.47
2018-03-19T13:12:15.474Z,3.85
2018-03-19T13:14:43.068Z,4.40
2018-03-19T13:17:10.653Z,4.03
2018-03-19T13:19:38.299Z,4.60
2018-03-19T13:22:05.956Z,4.32
2018-03-19T13:24:33.649Z,5.22
2018-03-19T13:27:01.199Z,4.72
2018-03-19T13:29:28.786Z,4.22
2018-03-19T13:31:56.478Z,4.53
2018-03-19T13:34:24.064Z,4.20
2018-03-19T13:36:51.625Z,4.62
2018-03-19T13:39:19.214Z,4.47
2018-03-19T13:41:46.879Z,5.45
2018-03-19T13:44:15.253Z,4.72
2018-03-19T13:46:42.831Z,4.22
2018-03-19T13:49:11.189Z,4.65
2018-03-19T13:51:38.848Z,4.78
2018-03-19T13:54:06.498Z,4.07
2018-03-19T13:56:34.083Z,5.03
2018-03-19T13:59:01.758Z,3.75
2018-03-19T14:01:29.408Z,5.25
2018-03-19T14:03:57.031Z,3.78
2018-03-19T14:06:24.653Z,4.25
2018-03-19T14:08:58.151Z,4.90
2018-03-19T14:11:25.778Z,4.47
2018-03-19T14:13:53.336Z,4.30
2018-03-19T14:16:20.960Z,3.60
2018-03-19T14:18:48.524Z,3.85
2018-03-19T14:21:16.114Z,5.35
2018-03-19T14:23:43.880Z,4.72
2018-03-19T14:26:11.503Z,4.05
2018-03-19T14:28:39.064Z,3.67
2018-03-19T14:31:06.760Z,3.22
2018-03-19T14:33:34.363Z,4.30
2018-03-19T14:36:02.729Z,5.40
2018-03-19T14:38:30.332Z,3.83
2018-03-19T14:40:57.909Z,4.25
2018-03-19T14:43:25.550Z,3.33
2018-03-19T14:45:53.446Z,4.07
2018-03-19T14:48:22.022Z,3.90
2018-03-19T14:50:50.433Z,3.62
2018-03-19T14:53:18.063Z,3.50
2018-03-19T14:55:45.670Z,3.15
2018-03-19T14:58:13.295Z,4.05
2018-03-19T15:00:40.934Z,3.35
2018-03-19T15:03:08.666Z,3.87
2018-03-19T15:05:36.249Z,3.15
2018-03-19T15:08:03.913Z,5.55
2018-03-19T15:10:31.618Z,3.30
2018-03-19T15:12:59.215Z,2.67
2018-03-19T15:15:26.881Z,3.45
2018-03-19T15:17:54.890Z,2.60
2018-03-19T15:20:22.635Z,3.12
2018-03-19T15:22:51.113Z,3.70
2018-03-19T15:25:21.317Z,2.95
2018-03-19T15:27:49.228Z,3.15
2018-03-19T15:30:16.910Z,4.07
2018-03-19T15:32:44.578Z,3.22
2018-03-19T15:35:12.275Z,4.60
2018-03-19T15:37:40.566Z,3.33
2018-03-19T15:40:08.290Z,3.37
2018-03-19T15:42:36.754Z,3.55
2018-03-19T15:45:05.242Z,3.33
2018-03-19T15:47:38.402Z,2.90
2018-03-19T15:50:06.325Z,3.22
2018-03-19T15:52:34.009Z,4.32
2018-03-19T15:55:01.599Z,3.15
2018-03-19T15:57:29.363Z,2.95
2018-03-19T15:59:56.948Z,3.10
2018-03-19T16:02:24.533Z,3.37
2018-03-19T16:04:52.134Z,3.10
2018-03-19T16:07:19.789Z,4.07
2018-03-19T16:09:47.563Z,2.97
2018-03-19T16:12:15.170Z,3.05
2018-03-19T16:14:42.914Z,3.05
2018-03-19T16:17:11.306Z,3.10
2018-03-19T16:19:39.771Z,3.20
2018-03-19T16:22:07.896Z,2.62
2018-03-19T16:24:35.665Z,2.58
2018-03-19T16:27:03.282Z,3.70
2018-03-19T16:29:31.102Z,4.10
2018-03-19T16:31:59.056Z,3.15
2018-03-19T16:34:26.673Z,3.20
2018-03-19T16:36:54.269Z,3.50
2018-03-19T16:39:21.935Z,4.10
2018-03-19T16:41:49.665Z,3.50
2018-03-19T16:44:18.006Z,2.87
2018-03-19T16:46:45.702Z,3.45
2018-03-19T16:49:13.383Z,3.75
2018-03-19T16:51:41.892Z,2.53
2018-03-19T16:54:09.704Z,3.42
2018-03-19T16:56:37.751Z,3.05
2018-03-19T16:59:05.534Z,2.90
2018-03-19T17:01:33.218Z,4.05
2018-03-19T17:04:01.451Z,3.83
2018-03-19T17:06:29.022Z,2.87
2018-03-19T17:08:56.617Z,3.40
2018-03-19T17:11:24.989Z,4.07
2018-03-19T17:13:52.547Z,3.55
2018-03-19T17:16:20.229Z,2.03
2018-03-19T17:18:48.570Z,3.42
2018-03-19T17:21:16.099Z,4.15
2018-03-19T17:23:44.526Z,2.95
2018-03-19T17:26:12.109Z,3.50
2018-03-19T17:28:40.519Z,3.22
2018-03-19T17:31:08.394Z,3.58
2018-03-19T17:33:35.980Z,3.60
2018-03-19T17:36:03.533Z,3.37
2018-03-19T17:38:31.207Z,3.92
2018-03-19T17:40:58.815Z,4.07
2018-03-19T17:43:26.439Z,3.28
2018-03-19T17:45:54.072Z,4.45
2018-03-19T17:48:21.659Z,4.15
2018-03-19T17:50:50.188Z,3.75
2018-03-19T17:53:17.811Z,3.83
2018-03-19T17:55:45.381Z,4.45
2018-03-19T17:58:13.766Z,4.30
2018-03-19T18:00:42.270Z,4.07
2018-03-19T18:03:09.852Z,4.25
2018-03-19T18:05:37.469Z,3.75
2018-03-19T18:08:05.901Z,4.25
2018-03-19T18:10:33.493Z,4.57
2018-03-19T18:13:01.169Z,3.45
2018-03-19T18:15:29.543Z,5.07
2018-03-19T18:17:57.941Z,7.50
2018-03-19T18:20:25.566Z,5.00
2018-03-19T18:22:53.218Z,5.03
2018-03-19T18:25:20.784Z,5.43
2018-03-19T18:27:48.327Z,5.15
2018-03-19T18:30:17.679Z,6.25
2018-03-19T18:32:45.351Z,6.18
2018-03-19T18:35:12.951Z,6.37
2018-03-19T18:37:40.596Z,5.62
2018-03-19T18:40:08.190Z,4.37
2018-03-19T18:42:35.771Z,5.65
2018-03-19T18:45:04.103Z,5.70
2018-03-19T18:47:31.746Z,5.12
2018-03-19T18:49:59.313Z,4.95
2018-03-19T18:52:27.078Z,5.55
2018-03-19T18:54:54.687Z,6.35
2018-03-19T18:57:23.092Z,4.93
2018-03-19T18:59:50.736Z,5.07
2018-03-19T19:02:19.022Z,5.03
2018-03-19T19:04:47.320Z,4.32
2018-03-19T19:07:14.921Z,4.90
2018-03-19T19:09:42.517Z,4.78
2018-03-19T19:12:15.213Z,5.12
2018-03-19T19:14:42.876Z,5.07
2018-03-19T19:17:10.501Z,5.20
2018-03-19T19:19:38.090Z,5.80
2018-03-19T19:22:05.683Z,5.45
2018-03-19T19:24:33.251Z,5.68
2018-03-19T19:27:01.830Z,4.90
2018-03-19T19:29:29.553Z,4.82
2018-03-19T19:31:57.101Z,5.20
2018-03-19T19:34:25.500Z,7.00
2018-03-19T19:36:53.064Z,5.97
2018-03-19T19:39:20.590Z,6.78
2018-03-19T19:41:48.396Z,6.55
2018-03-19T19:44:15.990Z,6.28
2018-03-19T19:46:43.626Z,7.50
2018-03-19T19:49:11.254Z,6.43
2018-03-19T19:51:39.643Z,5.28
2018-03-19T19:54:07.307Z,5.40
2018-03-19T19:56:34.905Z,5.43
2018-03-19T19:59:02.632Z,7.12
2018-03-19T20:01:30.226Z,6.47
2018-03-19T20:03:57.882Z,5.90
2018-03-19T20:06:25.429Z,6.72
2018-03-19T20:08:53.015Z,6.47
2018-03-19T20:11:20.605Z,7.72
2018-03-19T20:13:48.222Z,5.15
2018-03-19T20:16:15.827Z,6.93
2018-03-19T20:18:43.599Z,7.32
2018-03-19T20:21:11.161Z,5.40
2018-03-19T20:23:39.500Z,6.05
2018-03-19T20:26:07.136Z,6.60
2018-03-19T20:28:34.729Z,6.00
2018-03-19T20:31:02.296Z,6.85
2018-03-19T20:33:29.898Z,6.90
2018-03-19T20:35:58.237Z,6.45
2018-03-19T20:38:25.806Z,5.07
2018-03-19T20:40:53.460Z,6.05
2018-03-19T20:43:21.011Z,5.30
2018-03-19T20:45:48.585Z,5.75
2018-03-19T20:48:16.146Z,6.62
2018-03-19T20:50:43.725Z,5.75
2018-03-19T20:53:12.125Z,5.45
2018-03-19T20:55:39.727Z,5.20
2018-03-19T20:58:07.344Z,5.55
2018-03-19T21:00:35.657Z,5.40
2018-03-19T21:03:03.307Z,5.70
2018-03-19T21:05:30.921Z,5.62
2018-03-19T21:07:58.519Z,5.12
2018-03-19T21:10:26.197Z,6.30
2018-03-19T21:12:53.775Z,6.35
2018-03-19T21:15:21.338Z,5.35
2018-03-19T21:17:48.965Z,6.70
2018-03-19T21:20:16.554Z,6.03
2018-03-19T21:22:44.145Z,5.97
2018-03-19T21:25:11.870Z,5.93
2018-03-19T21:27:39.458Z,8.77
2018-03-19T21:30:07.146Z,3.28
2018-03-19T21:32:35.507Z,5.53
2018-03-19T21:35:03.128Z,5.65
2018-03-19T21:37:30.674Z,4.70
2018-03-19T21:39:58.292Z,5.10
2018-03-19T21:42:26.628Z,5.70
2018-03-19T21:44:54.166Z,5.57
2018-03-19T21:47:21.778Z,5.30
2018-03-19T21:49:49.363Z,6.18
2018-03-19T21:52:16.954Z,6.22
2018-03-19T21:54:44.524Z,6.40
2018-03-19T21:57:12.234Z,4.70
2018-03-19T21:59:40.609Z,6.32
2018-03-19T22:02:08.999Z,5.60
2018-03-19T22:04:37.402Z,6.12
2018-03-19T22:07:04.967Z,4.85
2018-03-19T22:09:32.547Z,5.18
2018-03-19T22:12:00.100Z,6.90
2018-03-19T22:14:27.647Z,5.20
2018-03-19T22:16:55.237Z,5.80
2018-03-19T22:19:23.162Z,6.93
2018-03-19T22:21:51.536Z,5.10
2018-03-19T22:24:19.919Z,5.82
2018-03-19T22:26:47.577Z,6.22
2018-03-19T22:29:15.902Z,7.50
2018-03-19T22:31:43.519Z,5.53
2018-03-19T22:34:11.865Z,6.82
2018-03-19T22:36:39.444Z,5.90
2018-03-19T22:39:07.848Z,6.55
2018-03-19T22:41:35.449Z,7.55
2018-03-19T22:44:03.021Z,6.35
2018-03-19T22:46:30.576Z,6.18
2018-03-19T22:48:58.164Z,6.80
2018-03-19T22:51:26.513Z,6.30
2018-03-19T22:53:54.109Z,5.90
2018-03-19T22:56:22.420Z,5.57
2018-03-19T22:58:49.946Z,5.53
2018-03-19T23:01:17.538Z,6.20
2018-03-19T23:03:45.201Z,6.68
2018-03-19T23:06:12.849Z,6.20
2018-03-19T23:08:40.507Z,5.35
2018-03-19T23:11:08.094Z,7.50
2018-03-19T23:13:35.765Z,6.15
2018-03-19T23:16:03.374Z,5.90
2018-03-19T23:18:31.787Z,6.97
2018-03-19T23:20:59.371Z,6.15
2018-03-19T23:23:27.715Z,8.55
2018-03-19T23:25:55.407Z,5.80
2018-03-19T23:28:23.073Z,6.62
2018-03-19T23:30:50.674Z,6.53
2018-03-19T23:33:19.052Z,7.05
2018-03-19T23:35:46.716Z,7.20
2018-03-19T23:38:15.155Z,7.40
2018-03-19T23:40:42.765Z,6.40
2018-03-19T23:43:10.454Z,6.12
2018-03-19T23:45:38.170Z,6.65
2018-03-19T23:48:05.796Z,4.78
2018-03-19T23:50:33.391Z,6.10
2018-03-19T23:53:01.011Z,7.50
2018-03-19T23:55:28.583Z,6.87
2018-03-19T23:57:56.177Z,6.30
